Skip Navigation LinksHome page > Weather > Current weather Skip Navigation Links

Current Weather

Eureka, Nunavut

For information only: do not use for flight planning or navigation.
Latest weather
Observation time Wednesday, August 5, 2015 7:00 AM CDT
Local time Wednesday, August 5, 2015 7:25 AM CDT
Flight conditions Marginal Visual Meteorological Conditions
Winds
Wind direction South (170°)
Wind speed 12 mph
Visibility 15 mi.
Present weather light rain
Sky condition
Ceiling 2,100 ft. overcast
Cloud layer few clouds 1,500 ft.
Cloud layer overcast 2,100 ft.
Temperature 43°F
Dewpoint 39°F
Altimeter 29.52 in.Hg
Derived measurements
Relative humidity 87%
Wind chill 37°F
Density altitude -468 ft.
Sea-level pressure 29.52 in.Hg
METAR CWEU 051200Z 17010KT 15SM -RA FEW015 OVC021 06/04 A2952 RMK SF2SC6 SLP997

Settings

Location code

InnerDrive.Weather 4.0.5567.0 Release CLR 4.0.30319.34014
Copyright ©2015 Inner Drive Technology. All rights reserved. Portions Copyright ©1986-2015 David Braverman.

Find weather

Site navigation


Skip Navigation Links

Place info

Page info

PayPal - The safer, easier way to pay online!

Return home.

Copyright ©2015 Inner Drive Technology. Purveyors of fine, hand-crafted computer software. Page printed 2015-08-05T12:25:43 UTC.